Washington Island, WI (54246)

4:35 AM CDT on August 30, 2016 (GMT -0500)
South Shore Drive | | Change Station

Elev 604 ft 45.34 °N, 86.89 °W | Updated 1 minute ago

Scattered Clouds
Scattered Clouds
71.1 °F
Feels Like 71.1 °F
N
0.0
Wind Variable Wind from East
Gusts 0.0 mph

Today
High -- | Low -- °F
--% Chance of Precip.
Yesterday
High -- | Low -- °F
Precip. -- in
Pressure 30.15 in
Visibility 7.0 miles
Clouds Scattered Clouds 9500 ft
Dew Point 71 °F
Humidity 99%
Rainfall in
Snow Depth Not available.
6:07 AM 7:27 PM
Waning Crescent, 4% visible
METAR KESC 300856Z AUTO 00000KT 7SM SCT095 21/20 A3010 RMK AO2 SLP210 T02060200 56002
Pressure 30.15 in
Visibility 7.0 miles
Clouds Scattered Clouds 9500 ft
Dew Point 71 °F
Humidity 99%
Rainfall in
Snow Depth Not available.
6:07 AM 7:27 PM
Waning Crescent, 4% visible
METAR KESC 300856Z AUTO 00000KT 7SM SCT095 21/20 A3010 RMK AO2 SLP210 T02060200 56002

10-Day Weather Forecast

Almanac

Astronomy

Aug. 30, 2016 Rise Set
Actual Time
Civil Twilight
Nautical Twilight
Astronomical Twilight
Moon
Length of Visible Light
Length of Day
Tomorrow will be .
, % of the Moon is Illuminated

Today's Extremes

State Highs State Lows

Community

WunderPhotos

Upload Photos

1,935,795 photos uploaded!

WunderBlog® & News

Nearby

Air Quality

  Air Quality AQ Index Pollutant
Not available.

Snow Depth

Station Depth Elevation

Earthquake Activity

City Distance Mag. Time & Date
Minimum magnitude displayed is 2.5.

Coastal Water Temperatures

Place Temperature

Stations

Nearby Weather Stations

Station Location Temp. Windchill Dew Point Humidity Wind Precip. Elev Updated Type
                   

Watches & Warnings

There are currently no watches in effect.